createdAt,value
2018-06-08T00:00:04.627Z,22.32
2018-06-08T00:01:10.626Z,22.31
2018-06-08T00:02:16.601Z,22.32
2018-06-08T00:03:22.864Z,22.33
2018-06-08T00:04:28.909Z,22.35
2018-06-08T00:05:34.547Z,22.38
2018-06-08T00:06:40.475Z,22.39
2018-06-08T00:07:46.101Z,22.39
2018-06-08T00:08:51.977Z,22.41
2018-06-08T00:09:57.923Z,22.41
2018-06-08T00:11:04.130Z,22.41
2018-06-08T00:12:10.088Z,22.40
2018-06-08T00:13:15.750Z,22.40
2018-06-08T00:14:21.737Z,22.38
2018-06-08T00:15:27.694Z,22.38
2018-06-08T00:16:33.676Z,22.35
2018-06-08T00:17:39.739Z,22.38
2018-06-08T00:18:45.754Z,22.41
2018-06-08T00:19:51.713Z,22.42
2018-06-08T00:20:57.680Z,22.43
2018-06-08T00:22:03.702Z,22.42
2018-06-08T00:23:09.681Z,22.41
2018-06-08T00:24:15.626Z,22.40
2018-06-08T00:25:21.682Z,22.39
2018-06-08T00:26:27.650Z,22.37
2018-06-08T00:27:33.663Z,22.38
2018-06-08T00:28:39.650Z,22.37
2018-06-08T00:29:45.603Z,22.32
2018-06-08T00:30:51.639Z,22.30
2018-06-08T00:31:57.662Z,22.29
2018-06-08T00:33:03.695Z,22.29
2018-06-08T00:34:09.321Z,22.28
2018-06-08T00:35:15.188Z,22.26
2018-06-08T00:36:21.148Z,22.23
2018-06-08T00:37:27.104Z,22.20
2018-06-08T00:38:33.110Z,22.18
2018-06-08T00:39:39.027Z,22.19
2018-06-08T00:40:44.947Z,22.20
2018-06-08T00:41:50.918Z,22.21
2018-06-08T00:42:56.891Z,22.18
2018-06-08T00:44:03.110Z,22.13
2018-06-08T00:45:09.206Z,22.12
2018-06-08T00:46:15.299Z,22.10
2018-06-08T00:47:21.274Z,22.10
2018-06-08T00:48:27.225Z,22.12
2018-06-08T00:49:33.194Z,22.13
2018-06-08T00:50:39.163Z,22.12
2018-06-08T00:51:45.133Z,22.13
2018-06-08T00:52:51.161Z,22.13
2018-06-08T00:53:57.219Z,22.10
2018-06-08T00:55:03.191Z,22.10
2018-06-08T00:56:23.495Z,22.10
2018-06-08T00:57:29.151Z,22.09
2018-06-08T00:58:35.136Z,22.05
2018-06-08T00:59:41.094Z,22.04
2018-06-08T01:00:47.074Z,22.02
2018-06-08T01:01:53.370Z,22.00
2018-06-08T01:02:59.332Z,21.95
2018-06-08T01:04:05.449Z,21.94
2018-06-08T01:05:11.411Z,21.90
2018-06-08T01:06:17.409Z,21.89
2018-06-08T01:07:23.715Z,21.89
2018-06-08T01:08:29.702Z,21.88
2018-06-08T01:09:35.655Z,21.85
2018-06-08T01:10:41.595Z,21.84
2018-06-08T01:11:47.573Z,21.88
2018-06-08T01:12:53.509Z,21.87
2018-06-08T01:13:59.209Z,21.86
2018-06-08T01:15:05.540Z,21.86
2018-06-08T01:16:11.782Z,21.86
2018-06-08T01:17:17.779Z,21.85
2018-06-08T01:18:23.763Z,21.83
2018-06-08T01:19:32.684Z,21.80
2018-06-08T01:20:38.907Z,21.78
2018-06-08T01:21:44.889Z,21.76
2018-06-08T01:22:50.887Z,21.75
2018-06-08T01:23:56.831Z,21.72
2018-06-08T01:25:02.794Z,21.69
2018-06-08T01:26:08.799Z,21.67
2018-06-08T01:27:14.920Z,21.63
2018-06-08T01:28:21.214Z,21.60
2018-06-08T01:29:27.301Z,21.57
2018-06-08T01:30:33.284Z,21.54
2018-06-08T01:31:39.392Z,21.54
2018-06-08T01:32:45.343Z,21.52
2018-06-08T01:33:51.329Z,21.47
2018-06-08T01:34:57.383Z,21.47
2018-06-08T01:36:03.325Z,21.44
2018-06-08T01:37:09.313Z,21.40
2018-06-08T01:38:15.348Z,21.39
2018-06-08T01:39:21.326Z,21.35
2018-06-08T01:40:27.327Z,21.28
2018-06-08T01:41:33.262Z,21.20
2018-06-08T01:42:39.329Z,21.15
2018-06-08T01:43:45.315Z,21.10
2018-06-08T01:44:51.282Z,21.04
2018-06-08T01:45:57.279Z,20.99
2018-06-08T01:47:03.223Z,20.97
2018-06-08T01:48:09.187Z,20.90
2018-06-08T01:49:15.137Z,20.82
2018-06-08T01:50:21.119Z,20.77
2018-06-08T01:51:27.078Z,20.73
2018-06-08T01:52:33.110Z,20.68
2018-06-08T01:53:39.080Z,20.62
2018-06-08T01:54:45.110Z,20.59
2018-06-08T01:55:51.076Z,20.58
2018-06-08T01:56:57.059Z,20.53
2018-06-08T01:58:03.022Z,20.51
2018-06-08T01:59:09.064Z,20.48
2018-06-08T02:00:15.009Z,20.48
2018-06-08T02:01:20.987Z,20.45
2018-06-08T02:02:27.070Z,20.44
2018-06-08T02:03:33.082Z,20.41
2018-06-08T02:04:39.045Z,20.42
2018-06-08T02:05:44.978Z,20.42
2018-06-08T02:06:50.966Z,20.42
2018-06-08T02:07:57.084Z,20.42
2018-06-08T02:09:03.117Z,20.40
2018-06-08T02:10:09.084Z,20.38
2018-06-08T02:11:15.056Z,20.36
2018-06-08T02:12:21.015Z,20.33
2018-06-08T02:13:26.939Z,20.33
2018-06-08T02:14:33.062Z,20.28
2018-06-08T02:15:39.035Z,20.26
2018-06-08T02:16:44.966Z,20.21
2018-06-08T02:17:51.093Z,20.17
2018-06-08T02:18:57.160Z,20.18
2018-06-08T02:20:03.145Z,20.14
2018-06-08T02:21:09.143Z,20.08
2018-06-08T02:22:15.181Z,20.07
2018-06-08T02:23:21.266Z,20.06
2018-06-08T02:24:27.205Z,20.03
2018-06-08T02:25:33.174Z,20.01
2018-06-08T02:26:39.105Z,19.99
2018-06-08T02:27:45.079Z,19.98
2018-06-08T02:28:51.063Z,19.98
2018-06-08T02:29:57.037Z,19.96
2018-06-08T02:31:02.989Z,19.91
2018-06-08T02:32:08.943Z,19.90
2018-06-08T02:33:14.903Z,19.82
2018-06-08T02:34:20.886Z,19.79
2018-06-08T02:35:26.839Z,19.75
2018-06-08T02:36:32.405Z,19.70
2018-06-08T02:37:38.248Z,19.65
2018-06-08T02:38:44.229Z,19.64
2018-06-08T02:39:50.219Z,19.64
2018-06-08T02:40:55.906Z,19.61
2018-06-08T02:42:01.767Z,19.59
2018-06-08T02:43:07.731Z,19.54
2018-06-08T02:44:13.718Z,19.52
2018-06-08T02:45:19.741Z,19.54
2018-06-08T02:46:25.693Z,19.53
2018-06-08T02:47:31.637Z,19.47
2018-06-08T02:48:37.667Z,19.43
2018-06-08T02:49:43.616Z,19.45
2018-06-08T02:50:49.254Z,19.44
2018-06-08T02:51:55.133Z,19.45
2018-06-08T02:53:01.130Z,19.43
2018-06-08T02:54:07.229Z,19.42
2018-06-08T02:55:13.187Z,19.43
2018-06-08T02:56:19.206Z,19.43
2018-06-08T02:57:25.167Z,19.45
2018-06-08T02:58:31.096Z,19.45
2018-06-08T02:59:37.419Z,19.44
2018-06-08T03:00:43.360Z,19.40
2018-06-08T03:01:49.323Z,19.42
2018-06-08T03:02:55.391Z,19.33
2018-06-08T03:04:01.316Z,19.31
2018-06-08T03:05:07.352Z,19.31
2018-06-08T03:06:13.323Z,19.25
2018-06-08T03:07:19.292Z,19.25
2018-06-08T03:08:25.250Z,19.22
2018-06-08T03:09:31.202Z,19.18
2018-06-08T03:10:37.174Z,19.18
2018-06-08T03:11:43.160Z,19.18
2018-06-08T03:12:49.136Z,19.17
2018-06-08T03:13:55.099Z,19.23
2018-06-08T03:15:01.057Z,19.18
2018-06-08T03:16:07.034Z,19.17
2018-06-08T03:17:12.968Z,19.18
2018-06-08T03:18:18.994Z,19.21
2018-06-08T03:19:24.943Z,19.22
2018-06-08T03:20:30.906Z,19.22
2018-06-08T03:21:36.942Z,19.26
2018-06-08T03:22:42.929Z,19.27
2018-06-08T03:23:48.546Z,19.32
2018-06-08T03:24:54.102Z,19.35
2018-06-08T03:25:59.979Z,19.37
2018-06-08T03:27:06.115Z,19.38
2018-06-08T03:28:12.084Z,19.38
2018-06-08T03:29:18.047Z,19.43
2018-06-08T03:30:24.022Z,19.48
2018-06-08T03:31:29.990Z,19.52
2018-06-08T03:32:36.035Z,19.57
2018-06-08T03:33:42.540Z,19.60
2018-06-08T03:34:48.514Z,19.64
2018-06-08T03:35:54.542Z,19.68
2018-06-08T03:37:00.684Z,19.71
2018-06-08T03:38:06.899Z,19.73
2018-06-08T03:39:12.992Z,19.77
2018-06-08T03:40:19.015Z,19.81
2018-06-08T03:41:25.127Z,19.84
2018-06-08T03:42:31.173Z,19.87
2018-06-08T03:43:37.107Z,19.90
2018-06-08T03:44:43.085Z,19.92
2018-06-08T03:45:49.228Z,19.93
2018-06-08T03:46:55.188Z,19.89
2018-06-08T03:48:01.177Z,19.92
2018-06-08T03:49:07.142Z,19.87
2018-06-08T03:50:13.120Z,19.92
2018-06-08T03:51:19.190Z,19.93
2018-06-08T03:52:24.922Z,19.92
2018-06-08T03:53:30.885Z,19.94
2018-06-08T03:54:36.835Z,19.94
2018-06-08T03:55:42.835Z,19.87
2018-06-08T03:56:49.331Z,19.87
2018-06-08T03:57:55.022Z,19.89
2018-06-08T03:59:00.549Z,19.88
2018-06-08T04:00:06.393Z,19.91
2018-06-08T04:01:12.310Z,19.87
2018-06-08T04:02:18.339Z,19.92
2018-06-08T04:03:24.299Z,19.99
2018-06-08T04:04:30.255Z,20.04
2018-06-08T04:05:36.287Z,20.04
2018-06-08T04:06:42.216Z,20.05
2018-06-08T04:07:48.187Z,20.07
2018-06-08T04:08:54.124Z,20.07
2018-06-08T04:10:00.088Z,20.07
2018-06-08T04:11:06.059Z,20.03
2018-06-08T04:12:11.800Z,20.04
2018-06-08T04:13:17.772Z,20.07
2018-06-08T04:14:23.771Z,20.12
2018-06-08T04:15:29.718Z,20.16
2018-06-08T04:16:35.671Z,20.19
2018-06-08T04:17:41.629Z,20.19
2018-06-08T04:18:47.609Z,20.23
2018-06-08T04:19:53.570Z,20.27
2018-06-08T04:20:59.539Z,20.22
2018-06-08T04:22:05.726Z,20.24
2018-06-08T04:23:11.675Z,20.29
2018-06-08T04:24:17.708Z,20.32
2018-06-08T04:25:23.567Z,20.37
2018-06-08T04:26:29.529Z,20.40
2018-06-08T04:27:35.140Z,20.42
2018-06-08T04:28:41.055Z,20.41
2018-06-08T04:29:47.028Z,20.43
2018-06-08T04:30:52.983Z,20.44
2018-06-08T04:31:59.041Z,20.42
2018-06-08T04:33:05.020Z,20.31
2018-06-08T04:34:11.138Z,20.37
2018-06-08T04:35:17.107Z,20.34
2018-06-08T04:36:23.073Z,20.35
2018-06-08T04:37:29.040Z,20.40
2018-06-08T04:38:34.998Z,20.37
2018-06-08T04:39:40.990Z,20.42
2018-06-08T04:40:47.079Z,20.43
2018-06-08T04:41:53.062Z,20.48
2018-06-08T04:42:58.995Z,20.46
2018-06-08T04:44:05.167Z,20.50
2018-06-08T04:45:10.810Z,20.51
2018-06-08T04:46:16.442Z,20.58
2018-06-08T04:47:22.318Z,20.59
2018-06-08T04:48:28.309Z,20.63
2018-06-08T04:49:34.265Z,20.69
2018-06-08T04:50:40.231Z,20.69
2018-06-08T04:51:45.985Z,20.72
2018-06-08T04:52:52.064Z,20.73
2018-06-08T04:53:58.113Z,20.77
2018-06-08T04:55:04.433Z,20.75
2018-06-08T04:56:10.051Z,20.74
2018-06-08T04:57:15.606Z,20.75
2018-06-08T04:58:21.503Z,20.76
2018-06-08T04:59:28.202Z,20.76
2018-06-08T05:00:34.213Z,20.81
2018-06-08T05:01:40.146Z,20.84
2018-06-08T05:02:46.142Z,20.87
2018-06-08T05:03:52.729Z,20.89
2018-06-08T05:04:58.701Z,20.91
2018-06-08T05:06:04.683Z,20.91
2018-06-08T05:07:10.678Z,20.91
2018-06-08T05:08:16.895Z,20.93
2018-06-08T05:09:22.858Z,20.99
2018-06-08T05:10:28.810Z,20.98
2018-06-08T05:11:34.722Z,20.99
2018-06-08T05:12:40.669Z,21.02
2018-06-08T05:13:46.661Z,21.01
2018-06-08T05:14:52.611Z,21.04
2018-06-08T05:15:58.578Z,20.98
2018-06-08T05:17:04.554Z,21.02
2018-06-08T05:18:10.489Z,21.02
2018-06-08T05:19:16.461Z,21.08
2018-06-08T05:20:22.510Z,21.07
2018-06-08T05:21:28.435Z,21.03
2018-06-08T05:22:34.687Z,21.06
2018-06-08T05:23:40.743Z,21.10
2018-06-08T05:24:46.821Z,21.09
2018-06-08T05:25:53.026Z,21.11
2018-06-08T05:26:59.032Z,21.17
2018-06-08T05:28:05.011Z,21.25
2018-06-08T05:29:11.139Z,21.33
2018-06-08T05:30:19.826Z,21.39
2018-06-08T05:31:25.785Z,21.45
2018-06-08T05:32:31.782Z,21.51
2018-06-08T05:33:37.810Z,21.52
2018-06-08T05:34:43.754Z,21.56
2018-06-08T05:35:50.129Z,21.64
2018-06-08T05:36:56.177Z,21.73
2018-06-08T05:38:02.221Z,21.78
2018-06-08T05:39:12.289Z,21.85
2018-06-08T05:40:18.640Z,21.86
2018-06-08T05:41:24.661Z,21.87
2018-06-08T05:42:30.660Z,21.93
2018-06-08T05:43:36.639Z,21.97
2018-06-08T05:44:42.586Z,21.99
2018-06-08T05:45:48.567Z,22.04
2018-06-08T05:46:54.607Z,22.12
2018-06-08T05:48:00.604Z,22.15
2018-06-08T05:49:06.567Z,22.21
2018-06-08T05:50:12.580Z,22.26
2018-06-08T05:51:18.551Z,22.34
2018-06-08T05:52:24.581Z,22.43
2018-06-08T05:53:30.567Z,22.66
2018-06-08T05:54:36.509Z,22.99
2018-06-08T05:55:42.567Z,23.33
2018-06-08T05:56:48.536Z,23.57
2018-06-08T05:57:59.802Z,23.75
2018-06-08T05:59:06.263Z,24.11
2018-06-08T06:00:12.192Z,24.59
2018-06-08T06:01:18.147Z,25.14
2018-06-08T06:02:24.310Z,25.74
2018-06-08T06:03:30.292Z,26.26
2018-06-08T06:04:36.247Z,26.77
2018-06-08T06:05:42.199Z,27.31
2018-06-08T06:06:48.180Z,27.91
2018-06-08T06:07:54.150Z,28.34
2018-06-08T06:09:00.127Z,28.87
2018-06-08T06:10:07.116Z,29.39
2018-06-08T06:11:13.216Z,29.81
2018-06-08T06:12:19.161Z,30.33
2018-06-08T06:13:25.103Z,30.83
2018-06-08T06:14:31.189Z,31.29
2018-06-08T06:15:37.285Z,31.72
2018-06-08T06:16:43.562Z,32.18
2018-06-08T06:17:49.699Z,32.55
2018-06-08T06:18:55.795Z,32.97
2018-06-08T06:20:02.087Z,33.22
2018-06-08T06:21:08.304Z,33.62
2018-06-08T06:22:14.279Z,34.02
2018-06-08T06:23:20.368Z,34.27
2018-06-08T06:24:26.519Z,34.61
2018-06-08T06:25:32.485Z,34.91
2018-06-08T06:26:38.132Z,35.32
2018-06-08T06:27:44.019Z,35.52
2018-06-08T06:28:50.104Z,35.61
2018-06-08T06:29:56.136Z,35.80
2018-06-08T06:31:02.136Z,36.21
2018-06-08T06:32:08.377Z,36.63
2018-06-08T06:33:14.360Z,36.92
2018-06-08T06:34:20.340Z,37.16
2018-06-08T06:35:26.379Z,37.38
2018-06-08T06:36:32.380Z,37.59
2018-06-08T06:37:38.476Z,37.43
2018-06-08T06:38:44.463Z,37.38
2018-06-08T06:39:50.478Z,37.53
2018-06-08T06:40:56.209Z,37.83
2018-06-08T06:42:02.120Z,38.06
2018-06-08T06:43:08.142Z,38.18
2018-06-08T06:44:14.008Z,38.29
2018-06-08T06:45:19.775Z,38.39
2018-06-08T06:46:25.466Z,38.64
2018-06-08T06:47:31.271Z,39.00
2018-06-08T06:48:36.978Z,39.09
2018-06-08T06:49:42.770Z,39.34
2018-06-08T06:50:48.504Z,39.58
2018-06-08T06:51:54.206Z,39.81
2018-06-08T06:52:59.990Z,39.99
2018-06-08T06:54:05.813Z,40.13
2018-06-08T06:55:11.551Z,40.17
2018-06-08T06:56:19.741Z,40.22
2018-06-08T06:57:25.354Z,40.33
2018-06-08T06:58:31.114Z,40.49
2018-06-08T06:59:36.822Z,40.62
2018-06-08T07:00:42.737Z,40.72
2018-06-08T07:01:48.429Z,41.14
2018-06-08T07:02:54.132Z,41.45
2018-06-08T07:03:59.824Z,41.70
2018-06-08T07:05:05.533Z,41.85
2018-06-08T07:06:11.156Z,41.96
2018-06-08T07:07:16.919Z,42.09
2018-06-08T07:08:22.724Z,42.22
2018-06-08T07:09:28.475Z,42.19
2018-06-08T07:10:34.271Z,42.18
2018-06-08T07:11:39.681Z,42.19
2018-06-08T07:12:45.347Z,41.98
2018-06-08T07:13:51.215Z,41.83
2018-06-08T07:14:56.918Z,41.66
2018-06-08T07:16:02.668Z,41.49
2018-06-08T07:17:08.487Z,41.53
2018-06-08T07:18:14.235Z,41.56
2018-06-08T07:19:20.091Z,41.50
2018-06-08T07:20:26.365Z,41.59
2018-06-08T07:21:31.710Z,41.59
2018-06-08T07:22:37.371Z,41.81
2018-06-08T07:23:43.135Z,42.00
2018-06-08T07:24:49.115Z,42.47
2018-06-08T07:25:55.050Z,42.87
2018-06-08T07:27:00.758Z,43.27
2018-06-08T07:28:06.455Z,43.49
2018-06-08T07:29:12.252Z,43.57
2018-06-08T07:30:18.159Z,43.70
2018-06-08T07:31:23.954Z,43.98
2018-06-08T07:32:30.270Z,44.03
2018-06-08T07:33:36.051Z,44.03
2018-06-08T07:34:42.057Z,43.75
2018-06-08T07:35:48.627Z,43.71
2018-06-08T07:36:54.347Z,43.52
2018-06-08T07:38:00.021Z,44.04
2018-06-08T07:39:08.103Z,44.31
2018-06-08T07:40:13.887Z,44.56
2018-06-08T07:41:19.936Z,44.64
2018-06-08T07:42:26.005Z,44.59
2018-06-08T07:43:32.027Z,44.64
2018-06-08T07:44:37.863Z,44.91
2018-06-08T07:45:43.342Z,45.01
2018-06-08T07:46:49.085Z,45.15
2018-06-08T07:47:55.015Z,45.22
2018-06-08T07:49:00.734Z,45.29
2018-06-08T07:50:06.137Z,45.29
2018-06-08T07:51:11.857Z,45.29
2018-06-08T07:52:17.634Z,45.17
2018-06-08T07:53:24.340Z,45.22
2018-06-08T07:54:30.123Z,44.93
2018-06-08T07:55:35.962Z,45.14
2018-06-08T07:56:41.831Z,45.12
2018-06-08T07:57:48.051Z,45.06
2018-06-08T07:58:53.811Z,45.13
2018-06-08T07:59:59.632Z,44.87
2018-06-08T08:01:05.769Z,44.70
2018-06-08T08:02:11.671Z,44.73
2018-06-08T08:03:17.469Z,44.45
2018-06-08T08:04:23.458Z,44.47
2018-06-08T08:05:29.251Z,44.60
2018-06-08T08:06:35.089Z,44.80
2018-06-08T08:07:40.763Z,44.95
2018-06-08T08:08:46.456Z,44.86
2018-06-08T08:09:52.214Z,44.66
2018-06-08T08:10:57.968Z,44.41
2018-06-08T08:12:03.732Z,44.41
2018-06-08T08:13:09.646Z,44.08
2018-06-08T08:14:17.068Z,43.77
2018-06-08T08:15:24.661Z,43.64
2018-06-08T08:16:30.370Z,43.40
2018-06-08T08:17:37.911Z,43.40
2018-06-08T08:18:45.216Z,44.06
2018-06-08T08:19:50.966Z,44.66
2018-06-08T08:20:56.671Z,44.36
2018-06-08T08:22:02.992Z,44.24
2018-06-08T08:23:08.706Z,43.89
2018-06-08T08:24:14.707Z,43.48
2018-06-08T08:25:20.726Z,43.39
2018-06-08T08:26:26.507Z,43.15
2018-06-08T08:27:32.485Z,43.18
2018-06-08T08:28:38.579Z,43.42
2018-06-08T08:29:44.275Z,44.07
2018-06-08T08:30:49.959Z,44.72
2018-06-08T08:31:55.696Z,45.19
2018-06-08T08:33:01.928Z,45.32
2018-06-08T08:34:08.208Z,45.26
2018-06-08T08:35:14.408Z,45.06
2018-06-08T08:36:20.558Z,45.22
2018-06-08T08:37:26.824Z,44.54
2018-06-08T08:38:32.883Z,44.26
2018-06-08T08:39:38.995Z,44.27
2018-06-08T08:40:44.774Z,44.17
2018-06-08T08:41:50.601Z,44.38
2018-06-08T08:42:56.365Z,44.42
2018-06-08T08:44:02.128Z,44.24
2018-06-08T08:45:07.967Z,43.98
2018-06-08T08:46:13.687Z,44.22
2018-06-08T08:47:19.522Z,44.44
2018-06-08T08:48:25.250Z,44.23
2018-06-08T08:49:30.958Z,44.49
2018-06-08T08:50:36.827Z,44.25
2018-06-08T08:51:42.549Z,44.47
2018-06-08T08:52:48.173Z,44.64
2018-06-08T08:53:54.303Z,44.64
2018-06-08T08:55:00.041Z,44.45
2018-06-08T08:56:06.871Z,44.35
2018-06-08T08:57:13.808Z,44.08
2018-06-08T08:58:19.897Z,43.99
2018-06-08T08:59:25.643Z,43.78
2018-06-08T09:00:31.353Z,43.51
2018-06-08T09:01:37.047Z,43.49
2018-06-08T09:02:42.823Z,43.71
2018-06-08T09:03:48.642Z,43.56
2018-06-08T09:04:54.626Z,43.85
2018-06-08T09:06:00.370Z,43.86
2018-06-08T09:07:06.194Z,44.07
2018-06-08T09:08:11.899Z,44.67
2018-06-08T09:09:17.588Z,45.08
2018-06-08T09:10:23.282Z,44.79
2018-06-08T09:11:29.034Z,44.43
2018-06-08T09:12:36.825Z,43.74
2018-06-08T09:13:43.147Z,43.85
2018-06-08T09:14:49.949Z,43.47
2018-06-08T09:15:57.049Z,43.42
2018-06-08T09:17:03.425Z,43.08
2018-06-08T09:18:10.081Z,43.03
2018-06-08T09:19:15.943Z,43.45
2018-06-08T09:20:21.679Z,43.78
2018-06-08T09:21:27.482Z,43.91
2018-06-08T09:22:33.199Z,43.99
2018-06-08T09:23:38.898Z,44.05
2018-06-08T09:24:44.642Z,44.04
2018-06-08T09:25:50.350Z,44.07
2018-06-08T09:26:55.762Z,44.19
2018-06-08T09:28:01.363Z,44.47
2018-06-08T09:29:07.033Z,44.36
2018-06-08T09:30:12.771Z,44.30
2018-06-08T09:31:18.674Z,44.08
2018-06-08T09:32:24.495Z,44.13
2018-06-08T09:33:30.281Z,43.60
2018-06-08T09:34:35.983Z,43.66
2018-06-08T09:35:41.672Z,43.79
2018-06-08T09:36:47.387Z,43.94
2018-06-08T09:37:53.095Z,44.02
2018-06-08T09:38:58.776Z,43.95
2018-06-08T09:40:04.504Z,44.13
2018-06-08T09:41:10.223Z,44.03
2018-06-08T09:42:15.918Z,44.09
2018-06-08T09:43:21.746Z,44.40
2018-06-08T09:44:27.458Z,44.64
2018-06-08T09:45:33.397Z,44.84
2018-06-08T09:46:39.155Z,45.02
2018-06-08T09:47:44.846Z,45.22
2018-06-08T09:48:50.319Z,44.89
2018-06-08T09:49:55.923Z,45.04
2018-06-08T09:51:01.684Z,45.05
2018-06-08T09:52:07.362Z,44.97
2018-06-08T09:53:13.055Z,44.55
2018-06-08T09:54:18.763Z,44.63
2018-06-08T09:55:24.467Z,44.62
2018-06-08T09:56:30.155Z,44.27
2018-06-08T09:57:35.886Z,44.39
2018-06-08T09:58:41.612Z,44.33
2018-06-08T09:59:47.336Z,43.81
2018-06-08T10:00:53.158Z,43.73
2018-06-08T10:01:58.832Z,43.77
2018-06-08T10:03:04.646Z,43.44
2018-06-08T10:04:10.311Z,43.35
2018-06-08T10:05:16.068Z,43.09
2018-06-08T10:06:21.943Z,43.20
2018-06-08T10:07:27.683Z,43.24
2018-06-08T10:08:33.398Z,43.23
2018-06-08T10:09:39.155Z,43.26
2018-06-08T10:10:44.882Z,43.43
2018-06-08T10:11:50.621Z,43.17
2018-06-08T10:12:56.365Z,43.14
2018-06-08T10:14:02.059Z,43.13
2018-06-08T10:15:08.110Z,43.05
2018-06-08T10:16:14.218Z,42.82
2018-06-08T10:17:20.012Z,42.77
2018-06-08T10:18:25.708Z,42.59
2018-06-08T10:19:31.442Z,42.42
2018-06-08T10:20:37.172Z,42.15
2018-06-08T10:21:42.892Z,42.24
2018-06-08T10:22:48.596Z,42.02
2018-06-08T10:23:54.292Z,41.64
2018-06-08T10:25:00.039Z,41.34
2018-06-08T10:26:05.757Z,41.18
2018-06-08T10:27:11.499Z,41.14
2018-06-08T10:28:17.194Z,40.73
2018-06-08T10:29:23.103Z,40.70
2018-06-08T10:30:28.782Z,40.32
2018-06-08T10:31:34.487Z,40.19
2018-06-08T10:32:40.200Z,39.93
2018-06-08T10:33:45.885Z,39.39
2018-06-08T10:34:51.590Z,39.04
2018-06-08T10:35:57.337Z,38.75
2018-06-08T10:37:03.038Z,38.45
2018-06-08T10:38:09.128Z,38.31
2018-06-08T10:39:14.838Z,37.93
2018-06-08T10:40:20.588Z,37.69
2018-06-08T10:41:26.453Z,37.50
2018-06-08T10:42:32.213Z,37.20
2018-06-08T10:43:37.930Z,36.99
2018-06-08T10:44:44.024Z,36.74
2018-06-08T10:45:50.171Z,36.44
2018-06-08T10:46:56.132Z,36.26
2018-06-08T10:48:02.096Z,36.08
2018-06-08T10:49:08.111Z,36.00
2018-06-08T10:50:14.163Z,35.84
2018-06-08T10:51:20.115Z,35.51
2018-06-08T10:52:26.108Z,35.18
2018-06-08T10:53:32.090Z,34.90
2018-06-08T10:54:38.415Z,34.84
2018-06-08T10:55:44.373Z,34.78
2018-06-08T10:56:50.825Z,34.78
2018-06-08T10:57:56.842Z,34.64
2018-06-08T10:59:02.460Z,34.50
2018-06-08T11:00:08.392Z,34.20
2018-06-08T11:01:14.463Z,34.04
2018-06-08T11:02:20.485Z,34.04
2018-06-08T11:03:26.470Z,33.85
2018-06-08T11:04:32.425Z,33.82
2018-06-08T11:05:38.431Z,33.65
2018-06-08T11:06:44.469Z,33.61
2018-06-08T11:07:50.566Z,33.68
2018-06-08T11:08:56.611Z,33.71
2018-06-08T11:10:02.980Z,33.68
2018-06-08T11:11:09.048Z,33.65
2018-06-08T11:12:15.063Z,33.54
2018-06-08T11:13:21.559Z,33.51
2018-06-08T11:14:27.535Z,33.42
2018-06-08T11:15:33.483Z,33.37
2018-06-08T11:16:39.471Z,33.41
2018-06-08T11:17:45.476Z,33.32
2018-06-08T11:18:51.489Z,33.39
2018-06-08T11:19:57.546Z,33.47
2018-06-08T11:21:03.682Z,33.46
2018-06-08T11:22:09.686Z,33.43
2018-06-08T11:23:15.394Z,33.46
2018-06-08T11:24:21.575Z,33.20
2018-06-08T11:25:27.594Z,33.10
2018-06-08T11:26:33.602Z,33.19
2018-06-08T11:27:39.591Z,33.21
2018-06-08T11:28:45.581Z,33.18
2018-06-08T11:29:51.547Z,33.04
2018-06-08T11:30:57.533Z,33.10
2018-06-08T11:32:03.529Z,33.05
2018-06-08T11:33:09.512Z,32.96
2018-06-08T11:34:15.482Z,32.72
2018-06-08T11:35:21.457Z,32.69
2018-06-08T11:36:27.500Z,32.74
2018-06-08T11:37:33.186Z,32.76
2018-06-08T11:38:39.269Z,32.63
2018-06-08T11:39:45.213Z,32.57
2018-06-08T11:40:51.198Z,32.51
2018-06-08T11:41:57.207Z,32.53
2018-06-08T11:43:03.261Z,32.57
2018-06-08T11:44:09.240Z,32.58
2018-06-08T11:45:15.193Z,32.54
2018-06-08T11:46:21.164Z,32.50
2018-06-08T11:47:27.090Z,32.50
2018-06-08T11:48:33.059Z,32.46
2018-06-08T11:49:39.104Z,32.50
2018-06-08T11:50:45.084Z,32.44
2018-06-08T11:51:51.062Z,32.39
2018-06-08T11:52:56.665Z,32.40
2018-06-08T11:54:02.284Z,32.50
2018-06-08T11:55:08.212Z,32.59
2018-06-08T11:56:14.314Z,32.65
2018-06-08T11:57:20.276Z,32.78
2018-06-08T11:58:25.978Z,32.86
2018-06-08T11:59:31.842Z,32.95
2018-06-08T12:00:37.843Z,32.94
2018-06-08T12:01:43.829Z,32.93
2018-06-08T12:02:50.417Z,33.03
2018-06-08T12:03:56.379Z,33.10
2018-06-08T12:05:02.342Z,33.18
2018-06-08T12:06:08.352Z,33.23
2018-06-08T12:07:14.326Z,33.10
2018-06-08T12:08:20.255Z,33.17
2018-06-08T12:09:26.234Z,33.23
2018-06-08T12:10:32.184Z,33.24
2018-06-08T12:11:38.512Z,33.19
2018-06-08T12:12:44.456Z,33.15
2018-06-08T12:13:50.426Z,33.16
2018-06-08T12:14:57.182Z,33.23
2018-06-08T12:16:03.138Z,33.29
2018-06-08T12:17:09.123Z,33.29
2018-06-08T12:18:15.366Z,33.32
2018-06-08T12:19:21.797Z,33.38
2018-06-08T12:20:28.486Z,33.42
2018-06-08T12:21:34.447Z,33.35
2018-06-08T12:22:40.447Z,33.37
2018-06-08T12:23:46.399Z,33.46
2018-06-08T12:24:52.362Z,33.52
2018-06-08T12:25:58.343Z,33.41
2018-06-08T12:27:04.335Z,33.30
2018-06-08T12:28:10.333Z,33.27
2018-06-08T12:29:16.042Z,33.36
2018-06-08T12:30:21.934Z,33.41
2018-06-08T12:31:27.903Z,33.52
2018-06-08T12:32:33.875Z,33.57
2018-06-08T12:33:39.851Z,33.61
2018-06-08T12:34:45.559Z,33.69
2018-06-08T12:35:51.472Z,33.62
2018-06-08T12:36:57.456Z,33.66
2018-06-08T12:38:03.413Z,33.64
2018-06-08T12:39:09.627Z,33.50
2018-06-08T12:40:15.639Z,33.48
2018-06-08T12:41:21.611Z,33.59
2018-06-08T12:42:27.547Z,33.53
2018-06-08T12:43:33.546Z,33.44
2018-06-08T12:44:39.718Z,33.26
2018-06-08T12:45:45.675Z,33.14
2018-06-08T12:46:51.647Z,33.08
2018-06-08T12:47:57.919Z,33.08
2018-06-08T12:49:03.908Z,33.09
2018-06-08T12:50:10.005Z,33.23
2018-06-08T12:51:15.996Z,33.18
2018-06-08T12:52:21.940Z,33.28
2018-06-08T12:53:27.913Z,33.41
2018-06-08T12:54:34.327Z,33.48
2018-06-08T12:55:40.361Z,33.49
2018-06-08T12:56:46.152Z,33.45
2018-06-08T12:57:52.120Z,33.53
2018-06-08T12:58:58.087Z,33.60
2018-06-08T13:00:04.143Z,33.68
2018-06-08T13:01:10.143Z,33.73
2018-06-08T13:02:15.762Z,33.86
2018-06-08T13:03:21.697Z,33.92
2018-06-08T13:04:27.679Z,33.91
2018-06-08T13:05:33.712Z,33.94
2018-06-08T13:06:39.692Z,33.77
2018-06-08T13:07:45.673Z,33.72
2018-06-08T13:08:51.786Z,33.68
2018-06-08T13:09:57.730Z,33.72
2018-06-08T13:11:03.695Z,33.67
2018-06-08T13:12:09.698Z,33.73
2018-06-08T13:13:15.665Z,33.78
2018-06-08T13:14:21.286Z,33.85
2018-06-08T13:15:26.856Z,33.93
2018-06-08T13:16:32.710Z,33.97
2018-06-08T13:17:38.791Z,34.04
2018-06-08T13:18:44.791Z,34.08
2018-06-08T13:19:50.773Z,34.10
2018-06-08T13:20:56.736Z,34.18
2018-06-08T13:22:02.749Z,34.19
2018-06-08T13:23:08.735Z,34.22
2018-06-08T13:24:14.702Z,34.25
2018-06-08T13:25:20.363Z,34.22
2018-06-08T13:26:26.324Z,34.13
2018-06-08T13:27:32.432Z,34.18
2018-06-08T13:28:38.418Z,34.20
2018-06-08T13:29:44.391Z,34.18
2018-06-08T13:30:50.625Z,34.16
2018-06-08T13:31:56.620Z,34.13
2018-06-08T13:33:02.598Z,34.09
2018-06-08T13:34:08.867Z,34.04
2018-06-08T13:35:14.852Z,33.94
2018-06-08T13:36:20.875Z,33.85
2018-06-08T13:37:26.875Z,33.74
2018-06-08T13:38:32.986Z,33.68
2018-06-08T13:39:38.929Z,33.62
2018-06-08T13:40:45.055Z,33.59
2018-06-08T13:41:51.028Z,33.54
2018-06-08T13:42:56.998Z,33.50
2018-06-08T13:44:03.190Z,33.40
2018-06-08T13:45:09.206Z,33.38
2018-06-08T13:46:56.115Z,33.39
2018-06-08T13:48:02.056Z,33.32
2018-06-08T13:49:08.012Z,33.19
2018-06-08T13:50:14.018Z,33.26
2018-06-08T13:51:19.966Z,33.33
2018-06-08T13:52:25.980Z,33.38
2018-06-08T13:53:32.106Z,33.47
2018-06-08T13:54:38.065Z,33.55
2018-06-08T13:55:44.180Z,33.59
2018-06-08T13:56:50.311Z,33.61
2018-06-08T13:57:56.305Z,33.55
2018-06-08T13:59:02.563Z,33.51
2018-06-08T14:00:08.316Z,33.53
2018-06-08T14:01:14.330Z,33.57
2018-06-08T14:02:20.283Z,33.58
2018-06-08T14:03:26.227Z,33.54
2018-06-08T14:04:32.210Z,33.43
2018-06-08T14:05:38.224Z,33.46
2018-06-08T14:06:44.239Z,33.47
2018-06-08T14:07:50.234Z,33.40
2018-06-08T14:08:56.191Z,33.49
2018-06-08T14:10:02.148Z,33.55